createdAt,value
2022-10-28T00:00:53.988Z,3.58
2022-10-28T00:03:21.538Z,3.70
2022-10-28T00:05:49.096Z,2.85
2022-10-28T00:08:16.614Z,3.80
2022-10-28T00:10:44.163Z,3.60
2022-10-28T00:13:11.710Z,3.22
2022-10-28T00:15:39.258Z,3.53
2022-10-28T00:18:06.831Z,3.28
2022-10-28T00:20:34.346Z,3.17
2022-10-28T00:23:01.924Z,3.83
2022-10-28T00:25:29.447Z,3.80
2022-10-28T00:27:57.010Z,3.35
2022-10-28T00:30:24.579Z,3.40
2022-10-28T00:32:53.312Z,2.83
2022-10-28T00:35:21.147Z,3.08
2022-10-28T00:37:48.678Z,3.33
2022-10-28T00:40:16.267Z,3.00
2022-10-28T00:42:43.843Z,2.85
2022-10-28T00:45:11.511Z,3.08
2022-10-28T00:47:42.508Z,3.22
2022-10-28T00:50:18.062Z,3.17
2022-10-28T00:52:47.126Z,3.33
2022-10-28T00:55:16.930Z,2.85
2022-10-28T00:57:45.585Z,2.85
2022-10-28T01:00:13.377Z,2.78
2022-10-28T01:02:48.685Z,3.08
2022-10-28T01:05:18.000Z,2.78
2022-10-28T01:07:45.675Z,2.70
2022-10-28T01:10:14.375Z,2.92
2022-10-28T01:12:55.072Z,2.78
2022-10-28T01:15:29.523Z,2.80
2022-10-28T01:18:09.230Z,2.63
2022-10-28T01:20:39.774Z,2.58
2022-10-28T01:23:12.350Z,2.80
2022-10-28T01:25:59.029Z,3.00
2022-10-28T01:28:51.980Z,2.45
2022-10-28T01:31:22.494Z,3.15
2022-10-28T01:33:50.006Z,2.63
2022-10-28T01:36:20.570Z,2.40
2022-10-28T01:38:51.955Z,2.40
2022-10-28T01:41:26.775Z,2.42
2022-10-28T01:43:54.266Z,2.45
2022-10-28T01:46:40.230Z,2.55
2022-10-28T01:49:19.980Z,2.40
2022-10-28T01:51:48.989Z,2.35
2022-10-28T01:54:18.231Z,2.78
2022-10-28T01:56:46.133Z,2.40
2022-10-28T01:59:15.265Z,2.60
2022-10-28T02:01:43.075Z,2.50
2022-10-28T02:04:10.795Z,1.90
2022-10-28T02:06:39.539Z,2.50
2022-10-28T02:09:07.090Z,2.58
2022-10-28T02:11:40.475Z,2.33
2022-10-28T02:14:13.347Z,2.28
2022-10-28T02:16:47.591Z,2.25
2022-10-28T02:19:18.083Z,2.03
2022-10-28T02:21:56.554Z,2.28
2022-10-28T02:24:29.593Z,2.38
2022-10-28T02:27:01.646Z,3.00
2022-10-28T02:29:35.992Z,2.75
2022-10-28T02:32:06.391Z,2.47
2022-10-28T02:34:40.215Z,3.05
2022-10-28T02:37:11.816Z,2.25
2022-10-28T02:39:41.648Z,2.55
2022-10-28T02:42:21.075Z,2.65
2022-10-28T02:44:50.450Z,2.08
2022-10-28T02:47:20.244Z,2.40
2022-10-28T02:49:51.224Z,2.58
2022-10-28T02:52:20.603Z,2.47
2022-10-28T02:54:50.760Z,2.40
2022-10-28T02:57:20.338Z,2.53
2022-10-28T02:59:57.939Z,2.53
2022-10-28T03:02:26.143Z,2.53
2022-10-28T03:04:53.905Z,2.75
2022-10-28T03:07:21.857Z,2.90
2022-10-28T03:09:49.442Z,3.28
2022-10-28T03:12:17.011Z,2.50
2022-10-28T03:14:44.609Z,2.40
2022-10-28T03:17:12.210Z,2.72
2022-10-28T03:19:39.796Z,2.33
2022-10-28T03:22:07.341Z,2.50
2022-10-28T03:24:34.898Z,2.63
2022-10-28T03:27:02.481Z,2.25
2022-10-28T03:29:30.045Z,2.40
2022-10-28T03:31:57.584Z,2.47
2022-10-28T03:34:25.110Z,2.20
2022-10-28T03:36:52.627Z,2.50
2022-10-28T03:39:20.231Z,2.20
2022-10-28T03:41:47.792Z,2.45
2022-10-28T03:44:15.363Z,2.20
2022-10-28T03:46:42.919Z,2.30
2022-10-28T03:49:10.483Z,2.80
2022-10-28T03:51:38.002Z,2.22
2022-10-28T03:54:05.522Z,2.40
2022-10-28T03:56:33.030Z,2.55
2022-10-28T03:59:00.594Z,2.38
2022-10-28T04:01:28.190Z,2.20
2022-10-28T04:03:55.790Z,2.25
2022-10-28T04:06:23.402Z,2.38
2022-10-28T04:08:50.974Z,2.63
2022-10-28T04:11:18.531Z,2.60
2022-10-28T04:13:46.098Z,2.38
2022-10-28T04:16:15.624Z,2.50
2022-10-28T04:18:43.193Z,2.55
2022-10-28T04:21:10.729Z,2.05
2022-10-28T04:23:38.268Z,2.00
2022-10-28T04:26:07.013Z,2.53
2022-10-28T04:28:34.577Z,2.28
2022-10-28T04:31:02.727Z,2.42
2022-10-28T04:33:30.322Z,2.53
2022-10-28T04:35:57.846Z,2.40
2022-10-28T04:40:57.840Z,2.47
2022-10-28T04:43:25.338Z,2.53
2022-10-28T04:45:53.075Z,2.60
2022-10-28T04:48:20.983Z,3.00
2022-10-28T04:50:48.582Z,2.92
2022-10-28T04:53:16.107Z,2.90
2022-10-28T04:55:43.660Z,3.55
2022-10-28T04:58:11.182Z,3.67
2022-10-28T05:00:38.715Z,3.63
2022-10-28T05:03:06.292Z,2.90
2022-10-28T05:05:34.176Z,3.28
2022-10-28T05:08:02.425Z,2.95
2022-10-28T05:10:30.631Z,3.97
2022-10-28T05:12:58.258Z,3.20
2022-10-28T05:15:26.580Z,3.67
2022-10-28T05:17:54.886Z,3.40
2022-10-28T05:20:22.729Z,4.35
2022-10-28T05:22:52.452Z,3.28
2022-10-28T05:25:20.379Z,3.90
2022-10-28T05:27:48.660Z,4.80
2022-10-28T05:30:16.449Z,3.50
2022-10-28T05:32:44.364Z,3.22
2022-10-28T05:35:12.562Z,3.05
2022-10-28T05:37:40.127Z,3.22
2022-10-28T05:40:08.152Z,3.17
2022-10-28T05:42:40.980Z,3.30
2022-10-28T05:45:09.096Z,3.20
2022-10-28T05:47:39.273Z,3.10
2022-10-28T05:50:07.907Z,2.80
2022-10-28T05:52:36.570Z,3.03
2022-10-28T05:55:04.341Z,2.67
2022-10-28T05:57:35.015Z,3.08
2022-10-28T06:00:02.931Z,3.35
2022-10-28T06:02:40.067Z,2.97
2022-10-28T06:05:08.256Z,3.35
2022-10-28T06:07:36.520Z,2.90
2022-10-28T06:10:05.427Z,3.67
2022-10-28T06:12:31.555Z,3.53
2022-10-28T06:14:59.515Z,3.47
2022-10-28T06:17:27.069Z,2.67
2022-10-28T06:19:54.661Z,2.95
2022-10-28T06:22:23.630Z,3.45
2022-10-28T06:24:51.470Z,3.08
2022-10-28T06:27:19.070Z,3.28
2022-10-28T06:29:46.871Z,2.80
2022-10-28T06:32:14.504Z,3.30
2022-10-28T06:34:42.090Z,3.60
2022-10-28T06:37:09.827Z,3.47
2022-10-28T06:39:38.374Z,3.40
2022-10-28T06:42:06.284Z,3.38
2022-10-28T06:44:33.818Z,4.15
2022-10-28T06:47:02.939Z,3.40
2022-10-28T06:49:30.505Z,3.20
2022-10-28T06:51:58.118Z,3.53
2022-10-28T06:54:26.036Z,3.70
2022-10-28T06:56:53.556Z,3.42
2022-10-28T06:59:21.209Z,3.60
2022-10-28T07:01:49.018Z,3.58
2022-10-28T07:04:16.788Z,3.50
2022-10-28T07:06:46.348Z,3.65
2022-10-28T07:09:16.212Z,3.80
2022-10-28T07:11:44.787Z,3.63
2022-10-28T07:14:12.344Z,3.80
2022-10-28T07:16:39.881Z,4.15
2022-10-28T07:19:07.470Z,3.95
2022-10-28T07:21:35.145Z,4.03
2022-10-28T07:24:02.974Z,3.60
2022-10-28T07:26:30.531Z,3.70
2022-10-28T07:28:58.059Z,3.67
2022-10-28T07:31:27.627Z,3.90
2022-10-28T07:33:55.670Z,4.30
2022-10-28T07:36:23.202Z,3.85
2022-10-28T07:38:51.724Z,3.85
2022-10-28T07:41:20.422Z,4.05
2022-10-28T07:43:48.078Z,3.53
2022-10-28T07:46:15.651Z,3.80
2022-10-28T07:48:43.284Z,3.55
2022-10-28T07:51:12.193Z,4.45
2022-10-28T07:53:40.225Z,4.40
2022-10-28T07:56:09.698Z,3.92
2022-10-28T07:58:37.806Z,3.47
2022-10-28T08:01:07.185Z,3.22
2022-10-28T08:03:39.078Z,3.00
2022-10-28T08:06:17.266Z,3.63
2022-10-28T08:08:45.959Z,3.42
2022-10-28T08:11:18.933Z,3.40
2022-10-28T08:13:47.100Z,2.72
2022-10-28T08:16:14.767Z,3.35
2022-10-28T08:18:42.586Z,3.55
2022-10-28T08:21:10.885Z,3.40
2022-10-28T08:23:38.689Z,3.75
2022-10-28T08:26:06.577Z,3.17
2022-10-28T08:28:34.330Z,3.38
2022-10-28T08:31:10.295Z,3.30
2022-10-28T08:33:39.022Z,3.63
2022-10-28T08:36:07.348Z,4.10
2022-10-28T08:38:34.924Z,3.30
2022-10-28T08:41:17.838Z,4.13
2022-10-28T08:43:57.682Z,3.65
2022-10-28T08:46:37.569Z,3.55
2022-10-28T08:49:10.669Z,2.53
2022-10-28T08:51:48.178Z,3.65
2022-10-28T08:54:17.831Z,3.85
2022-10-28T08:56:47.490Z,3.50
2022-10-28T08:59:19.736Z,3.25
2022-10-28T09:04:35.767Z,3.28
2022-10-28T09:07:04.101Z,3.30
2022-10-28T09:09:32.249Z,3.25
2022-10-28T09:12:18.746Z,2.90
2022-10-28T09:15:01.794Z,3.15
2022-10-28T09:17:52.500Z,3.17
2022-10-28T09:20:39.297Z,3.17
2022-10-28T09:23:29.194Z,2.97
2022-10-28T09:26:20.833Z,3.35
2022-10-28T09:28:56.263Z,2.50
2022-10-28T09:31:41.454Z,2.13
2022-10-28T09:34:29.802Z,2.50
2022-10-28T09:37:17.633Z,2.63
2022-10-28T09:39:47.648Z,1.90
2022-10-28T09:42:18.826Z,2.10
2022-10-28T09:44:56.009Z,1.95
2022-10-28T09:47:25.938Z,1.92
2022-10-28T09:49:56.441Z,1.63
2022-10-28T09:52:25.833Z,1.35
2022-10-28T09:54:54.128Z,1.58
2022-10-28T09:57:22.877Z,1.52
2022-10-28T09:59:50.436Z,2.22
2022-10-28T10:02:28.935Z,1.63
2022-10-28T10:04:57.667Z,1.70
2022-10-28T10:07:34.130Z,1.70
2022-10-28T10:12:37.442Z,1.75
2022-10-28T10:15:06.621Z,1.58
2022-10-28T10:17:40.008Z,1.88
2022-10-28T10:20:12.146Z,1.65
2022-10-28T10:22:40.689Z,1.42
2022-10-28T10:25:20.123Z,1.95
2022-10-28T10:27:56.018Z,1.65
2022-10-28T10:30:26.365Z,1.70
2022-10-28T10:32:54.083Z,1.70
2022-10-28T10:35:21.792Z,1.48
2022-10-28T10:37:49.486Z,1.60
2022-10-28T10:40:17.674Z,1.70
2022-10-28T10:42:57.390Z,1.63
2022-10-28T10:45:33.894Z,1.20
2022-10-28T10:48:12.164Z,1.27
2022-10-28T10:50:39.937Z,1.48
2022-10-28T10:53:08.385Z,1.20
2022-10-28T10:55:49.711Z,1.13
2022-10-28T10:58:19.254Z,1.00
2022-10-28T11:00:52.397Z,1.30
2022-10-28T11:03:23.488Z,1.15
2022-10-28T11:06:05.327Z,1.25
2022-10-28T11:08:42.125Z,1.40
2022-10-28T11:11:13.936Z,1.50
2022-10-28T11:13:45.201Z,1.20
2022-10-28T11:16:19.341Z,1.23
2022-10-28T11:18:48.308Z,1.38
2022-10-28T11:21:42.841Z,1.10
2022-10-28T11:24:13.185Z,1.40
2022-10-28T11:26:45.454Z,1.30
2022-10-28T11:29:16.610Z,1.42
2022-10-28T11:31:47.573Z,1.45
2022-10-28T11:34:18.287Z,1.17
2022-10-28T11:36:59.173Z,1.15
2022-10-28T11:39:40.702Z,1.40
2022-10-28T11:42:08.226Z,1.27
2022-10-28T11:44:41.758Z,1.30
2022-10-28T11:47:12.228Z,1.40
2022-10-28T11:49:59.057Z,1.50
2022-10-28T11:52:26.673Z,1.48
2022-10-28T11:55:12.839Z,1.40
2022-10-28T11:57:46.955Z,1.52
2022-10-28T12:00:14.648Z,1.40
2022-10-28T12:02:42.408Z,2.00
2022-10-28T12:05:16.073Z,1.90
2022-10-28T12:07:52.456Z,1.50
2022-10-28T12:10:34.327Z,1.90
2022-10-28T12:13:12.658Z,1.52
2022-10-28T12:15:40.138Z,1.60
2022-10-28T12:18:29.068Z,1.67
2022-10-28T12:21:05.860Z,1.60
2022-10-28T12:23:35.023Z,1.50
2022-10-28T12:26:05.330Z,1.30
2022-10-28T12:28:34.739Z,1.45
2022-10-28T12:31:02.893Z,1.38
2022-10-28T12:33:34.341Z,1.40
2022-10-28T12:36:04.678Z,1.48
2022-10-28T12:38:41.200Z,1.33
2022-10-28T12:41:13.922Z,1.38
2022-10-28T12:43:41.461Z,1.50
2022-10-28T12:46:14.795Z,1.25
2022-10-28T12:48:45.765Z,1.30
2022-10-28T12:51:17.213Z,1.55
2022-10-28T12:53:55.046Z,1.30
2022-10-28T12:56:25.185Z,1.60
2022-10-28T12:59:01.733Z,1.35
2022-10-28T13:01:31.603Z,1.10
2022-10-28T13:03:59.361Z,1.38
2022-10-28T13:09:23.154Z,1.05
2022-10-28T13:11:59.844Z,1.20
2022-10-28T13:14:30.122Z,1.10
2022-10-28T13:17:18.318Z,1.08
2022-10-28T13:19:51.816Z,1.92
2022-10-28T13:25:05.967Z,1.20
2022-10-28T13:27:33.643Z,1.25
2022-10-28T13:30:03.398Z,1.50
2022-10-28T13:32:37.362Z,1.30
2022-10-28T13:35:12.645Z,1.55
2022-10-28T13:37:40.536Z,1.45
2022-10-28T13:40:21.113Z,1.35
2022-10-28T13:42:49.561Z,1.45
2022-10-28T13:45:37.086Z,1.10
2022-10-28T13:48:23.592Z,1.63
2022-10-28T13:50:51.141Z,1.48
2022-10-28T13:53:24.647Z,1.52
2022-10-28T13:55:57.026Z,1.05
2022-10-28T13:58:26.016Z,1.10
2022-10-28T14:00:54.784Z,1.20
2022-10-28T14:03:25.020Z,1.52
2022-10-28T14:05:58.188Z,1.48
2022-10-28T14:08:35.374Z,1.50
2022-10-28T14:11:08.616Z,1.02
2022-10-28T14:13:49.720Z,1.30
2022-10-28T14:16:24.069Z,1.27
2022-10-28T14:19:04.042Z,1.10
2022-10-28T14:21:44.357Z,1.38
2022-10-28T14:24:31.396Z,1.45
2022-10-28T14:27:04.790Z,1.33
2022-10-28T14:29:32.857Z,1.20
2022-10-28T14:32:20.535Z,1.15
2022-10-28T14:34:48.758Z,1.10
2022-10-28T14:37:27.430Z,1.20
2022-10-28T14:40:06.768Z,1.23
2022-10-28T14:42:34.271Z,1.30
2022-10-28T14:45:07.834Z,1.80
2022-10-28T14:47:57.808Z,1.45
2022-10-28T14:50:38.689Z,1.55
2022-10-28T14:53:08.469Z,1.85
2022-10-28T14:55:36.028Z,1.50
2022-10-28T14:58:18.924Z,1.70
2022-10-28T15:00:58.520Z,2.55
2022-10-28T15:03:26.222Z,1.90
2022-10-28T15:05:53.848Z,2.10
2022-10-28T15:08:21.472Z,1.90
2022-10-28T15:10:50.477Z,1.70
2022-10-28T15:13:20.179Z,2.75
2022-10-28T15:15:54.392Z,1.67
2022-10-28T15:18:23.658Z,2.00
2022-10-28T15:21:07.452Z,2.42
2022-10-28T15:23:35.383Z,1.83
2022-10-28T15:26:13.054Z,1.85
2022-10-28T15:28:41.077Z,2.00
2022-10-28T15:31:08.863Z,2.53
2022-10-28T15:33:40.774Z,2.60
2022-10-28T15:36:16.676Z,1.92
2022-10-28T15:38:46.714Z,2.35
2022-10-28T15:41:23.833Z,2.10
2022-10-28T15:43:55.856Z,2.72
2022-10-28T15:46:24.197Z,2.20
2022-10-28T15:48:58.453Z,2.63
2022-10-28T15:51:26.700Z,1.90
2022-10-28T15:53:55.199Z,2.53
2022-10-28T15:56:26.797Z,2.33
2022-10-28T15:59:00.232Z,2.63
2022-10-28T16:01:39.994Z,2.55
2022-10-28T16:04:30.624Z,3.20
2022-10-28T16:06:58.852Z,2.83
2022-10-28T16:09:32.340Z,3.10
2022-10-28T16:12:02.663Z,2.33
2022-10-28T16:14:36.898Z,2.42
2022-10-28T16:17:11.441Z,2.40
2022-10-28T16:19:40.894Z,2.75
2022-10-28T16:22:11.697Z,2.63
2022-10-28T16:24:39.266Z,2.97
2022-10-28T16:27:15.762Z,2.67
2022-10-28T16:29:43.332Z,3.05
2022-10-28T16:32:14.774Z,3.20
2022-10-28T16:34:42.589Z,2.72
2022-10-28T16:37:21.980Z,2.75
2022-10-28T16:39:49.694Z,2.60
2022-10-28T16:42:17.827Z,2.60
2022-10-28T16:44:47.686Z,3.50
2022-10-28T16:47:19.895Z,4.65
2022-10-28T16:49:54.290Z,4.85
2022-10-28T16:52:28.288Z,3.90
2022-10-28T16:54:56.126Z,3.00
2022-10-28T16:59:56.854Z,3.80
2022-10-28T17:02:27.470Z,3.25
2022-10-28T17:04:55.307Z,3.00
2022-10-28T17:07:23.406Z,4.40
2022-10-28T17:09:52.047Z,3.17
2022-10-28T17:12:21.784Z,3.30
2022-10-28T17:14:49.656Z,3.55
2022-10-28T17:17:17.606Z,3.17
2022-10-28T17:19:46.449Z,2.85
2022-10-28T17:22:14.759Z,3.20
2022-10-28T17:24:42.529Z,3.10
2022-10-28T17:27:10.579Z,4.05
2022-10-28T17:29:38.845Z,3.10
2022-10-28T17:32:08.675Z,3.13
2022-10-28T17:34:36.806Z,3.28
2022-10-28T17:37:04.554Z,2.95
2022-10-28T17:39:32.253Z,3.20
2022-10-28T17:41:59.899Z,3.03
2022-10-28T17:44:27.497Z,3.33
2022-10-28T17:46:58.070Z,4.03
2022-10-28T17:49:26.295Z,4.32
2022-10-28T17:51:53.958Z,3.40
2022-10-28T17:54:21.553Z,3.47
2022-10-28T17:56:49.229Z,3.55
2022-10-28T17:59:18.847Z,4.15
2022-10-28T18:01:46.517Z,3.60
2022-10-28T18:04:14.438Z,4.10
2022-10-28T18:06:42.006Z,3.83
2022-10-28T18:09:12.877Z,3.70
2022-10-28T18:11:40.861Z,3.67
2022-10-28T18:14:08.648Z,4.28
2022-10-28T18:16:37.114Z,3.92
2022-10-28T18:19:08.335Z,3.17
2022-10-28T18:21:36.085Z,3.85
2022-10-28T18:24:04.277Z,3.88
2022-10-28T18:26:32.900Z,3.63
2022-10-28T18:29:03.868Z,3.78
2022-10-28T18:31:34.793Z,4.50
2022-10-28T18:34:02.987Z,3.92
2022-10-28T18:36:34.424Z,3.70
2022-10-28T18:39:06.957Z,4.43
2022-10-28T18:41:37.935Z,4.00
2022-10-28T18:44:06.315Z,4.03
2022-10-28T18:46:35.730Z,4.72
2022-10-28T18:49:04.266Z,4.55
2022-10-28T18:51:32.125Z,4.50
2022-10-28T18:53:59.759Z,4.32
2022-10-28T18:56:31.245Z,4.65
2022-10-28T18:59:02.385Z,4.47
2022-10-28T19:01:31.645Z,5.13
2022-10-28T19:04:00.602Z,4.30
2022-10-28T19:06:32.747Z,4.15
2022-10-28T19:09:02.106Z,4.50
2022-10-28T19:11:31.145Z,5.60
2022-10-28T19:13:59.611Z,4.13
2022-10-28T19:16:27.526Z,5.30
2022-10-28T19:18:58.749Z,4.90
2022-10-28T19:21:26.760Z,5.28
2022-10-28T19:23:54.712Z,5.28
2022-10-28T19:26:22.922Z,4.78
2022-10-28T19:28:51.422Z,5.15
2022-10-28T19:31:23.280Z,5.57
2022-10-28T19:36:19.558Z,5.32
2022-10-28T19:38:48.335Z,4.78
2022-10-28T19:41:16.998Z,5.43
2022-10-28T19:43:44.776Z,4.75
2022-10-28T19:46:13.619Z,5.43
2022-10-28T19:48:42.043Z,5.18
2022-10-28T19:51:11.382Z,5.78
2022-10-28T19:53:38.935Z,5.10
2022-10-28T19:56:06.672Z,5.15
2022-10-28T19:58:34.899Z,5.30
2022-10-28T20:01:08.936Z,5.32
2022-10-28T20:03:39.156Z,5.55
2022-10-28T20:06:09.043Z,6.00
2022-10-28T20:08:37.685Z,5.43
2022-10-28T20:11:07.070Z,5.30
2022-10-28T20:13:35.347Z,6.45
2022-10-28T20:16:04.482Z,5.95
2022-10-28T20:18:32.970Z,6.15
2022-10-28T20:21:04.375Z,5.28
2022-10-28T20:23:32.321Z,6.45
2022-10-28T20:26:00.360Z,6.10
2022-10-28T20:28:27.962Z,6.00
2022-10-28T20:30:56.637Z,5.95
2022-10-28T20:33:25.484Z,5.72
2022-10-28T20:35:53.615Z,5.88
2022-10-28T20:38:21.706Z,5.55
2022-10-28T20:40:50.192Z,6.13
2022-10-28T20:43:20.163Z,5.70
2022-10-28T20:45:59.283Z,6.10
2022-10-28T20:48:30.838Z,5.93
2022-10-28T20:50:59.571Z,5.82
2022-10-28T20:53:28.116Z,6.15
2022-10-28T20:55:56.962Z,5.93
2022-10-28T20:58:28.119Z,5.68
2022-10-28T21:00:55.727Z,5.90
2022-10-28T21:03:23.342Z,6.55
2022-10-28T21:05:50.883Z,6.28
2022-10-28T21:08:18.416Z,5.72
2022-10-28T21:10:45.976Z,6.30
2022-10-28T21:13:13.511Z,5.40
2022-10-28T21:15:41.601Z,5.38
2022-10-28T21:18:09.177Z,5.82
2022-10-28T21:20:36.829Z,5.57
2022-10-28T21:23:04.663Z,6.25
2022-10-28T21:25:32.409Z,5.10
2022-10-28T21:28:00.654Z,4.97
2022-10-28T21:30:28.273Z,6.32
2022-10-28T21:32:55.962Z,4.68
2022-10-28T21:35:23.997Z,5.80
2022-10-28T21:37:51.591Z,5.68
2022-10-28T21:40:19.141Z,4.82
2022-10-28T21:42:50.175Z,5.40
2022-10-28T21:45:17.913Z,6.40
2022-10-28T21:47:46.637Z,5.30
2022-10-28T21:50:14.819Z,4.90
2022-10-28T21:52:42.399Z,5.60
2022-10-28T21:55:20.276Z,4.95
2022-10-28T21:57:54.977Z,4.18
2022-10-28T22:00:22.793Z,5.13
2022-10-28T22:02:51.448Z,4.65
2022-10-28T22:05:19.081Z,3.60
2022-10-28T22:07:46.596Z,3.78
2022-10-28T22:10:14.169Z,3.85
2022-10-28T22:12:41.704Z,3.67
2022-10-28T22:15:09.358Z,3.83
2022-10-28T22:17:36.890Z,4.18
2022-10-28T22:20:07.390Z,3.80
2022-10-28T22:22:35.114Z,3.00
2022-10-28T22:25:04.885Z,3.38
2022-10-28T22:27:35.422Z,3.10
2022-10-28T22:30:02.975Z,3.20
2022-10-28T22:32:30.539Z,3.47
2022-10-28T22:34:58.084Z,4.47
2022-10-28T22:37:25.643Z,4.50
2022-10-28T22:39:53.163Z,4.13
2022-10-28T22:42:20.814Z,3.45
2022-10-28T22:44:48.382Z,4.20
2022-10-28T22:47:15.932Z,3.45
2022-10-28T22:49:43.476Z,3.40
2022-10-28T22:52:11.010Z,3.80
2022-10-28T22:54:38.539Z,3.70
2022-10-28T22:57:06.124Z,3.90
2022-10-28T22:59:33.637Z,3.65
2022-10-28T23:02:01.317Z,3.70
2022-10-28T23:04:28.965Z,2.92
2022-10-28T23:06:56.500Z,3.38
2022-10-28T23:09:24.040Z,3.42
2022-10-28T23:11:51.644Z,3.60
2022-10-28T23:14:19.195Z,3.83
2022-10-28T23:16:48.857Z,4.35
2022-10-28T23:19:16.432Z,3.83
2022-10-28T23:21:44.003Z,3.92
2022-10-28T23:24:11.692Z,4.60
2022-10-28T23:26:39.236Z,4.60
2022-10-28T23:29:06.821Z,4.63
2022-10-28T23:31:34.394Z,4.70
2022-10-28T23:34:02.019Z,4.40
2022-10-28T23:36:29.621Z,5.15
2022-10-28T23:38:57.630Z,5.13
2022-10-28T23:41:25.163Z,3.80
2022-10-28T23:43:52.754Z,3.92
2022-10-28T23:46:21.049Z,5.00
2022-10-28T23:48:48.650Z,4.30
2022-10-28T23:51:16.299Z,4.50
2022-10-28T23:53:43.836Z,3.67
2022-10-28T23:56:11.397Z,2.97
2022-10-28T23:58:38.946Z,4.10
